Time;durP1;ratioP1;P1;durP2;ratioP2;P2;SDS_P1;SDS_P2;PMS_P1;PMS_P2;Temp;Humidity;BMP_temperature;BMP_pressure;BME280_temperature;BME280_humidity;BME280_pressure;Samples;Min_cycle;Max_cycle;Signal;HPM_P1;HPM_P2
2022/09/08 00:01:30;;;;;;;;;2.00;1.00;;;;;19.17;65.35;100332.75;5017937;28;45447;-52
2022/09/08 00:03:57;;;;;;;;;1.00;1.00;;;;;19.15;65.41;100329.41;5018066;28;45324;-53
2022/09/08 00:06:23;;;;;;;;;1.60;0.20;;;;;19.13;65.66;100333.56;5015821;28;47362;-50
2022/09/08 00:08:51;;;;;;;;;0.00;0.00;;;;;19.15;65.36;100329.41;5017727;28;45373;-51
2022/09/08 00:11:20;;;;;;;;;1.00;1.00;;;;;19.12;65.34;100318.00;5017938;28;45343;-50
2022/09/08 00:13:46;;;;;;;;;1.40;1.40;;;;;19.16;65.30;100335.81;5017749;28;45337;-51
2022/09/08 00:16:12;;;;;;;;;1.00;1.00;;;;;19.19;65.25;100329.66;4999296;28;45969;-54
2022/09/08 00:18:39;;;;;;;;;1.25;1.25;;;;;19.08;65.28;100323.28;5017361;28;45403;-52
2022/09/08 00:21:05;;;;;;;;;3.20;1.00;;;;;18.99;65.42;100306.28;5017755;28;45421;-50
2022/09/08 00:23:30;;;;;;;;;2.00;1.00;;;;;19.20;65.12;100343.31;5017606;28;45425;-53
2022/09/08 00:25:55;;;;;;;;;1.00;1.00;;;;;19.19;65.11;100343.56;5017215;28;45705;-50
2022/09/08 00:28:21;;;;;;;;;3.25;1.00;;;;;19.24;65.04;100346.34;5016082;28;45804;-50
2022/09/08 00:30:46;;;;;;;;;1.50;0.00;;;;;19.12;65.02;100318.00;5016395;28;45910;-51
2022/09/08 00:33:12;;;;;;;;;1.50;1.50;;;;;19.02;65.08;100304.91;4999238;28;45417;-51
2022/09/08 00:35:42;;;;;;;;;1.00;1.00;;;;;19.20;65.33;100337.75;5017365;28;45917;-50
2022/09/08 00:38:07;;;;;;;;;0.80;0.80;;;;;19.06;65.31;100311.63;5017185;28;45472;-52
2022/09/08 00:40:32;;;;;;;;;0.00;0.00;;;;;19.04;65.48;100324.94;5017410;28;45397;-54
2022/09/08 00:43:03;;;;;;;;;1.00;1.00;;;;;19.11;65.67;100331.09;4999169;28;45659;-52
2022/09/08 00:45:36;;;;;;;;;1.00;1.00;;;;;18.85;65.41;100288.50;5015474;28;46934;-53
2022/09/08 00:48:03;;;;;;;;;3.00;0.00;;;;;19.00;66.02;100319.06;4999598;28;45384;-50
2022/09/08 00:50:29;;;;;;;;;2.60;1.60;;;;;18.92;65.84;100323.28;4999696;28;45392;-53
2022/09/08 00:53:00;;;;;;;;;1.00;1.00;;;;;18.87;66.05;100319.63;5017163;28;45393;-54
2022/09/08 00:55:27;;;;;;;;;1.20;1.20;;;;;18.80;66.53;100326.31;4999922;28;45643;-52
2022/09/08 00:57:52;;;;;;;;;1.20;1.20;;;;;18.80;66.03;100320.75;5016692;28;45431;-52
2022/09/08 01:00:18;;;;;;;;;1.00;1.00;;;;;18.81;66.17;100339.13;5016796;28;45381;-53
2022/09/08 01:02:46;;;;;;;;;2.50;2.00;;;;;18.81;66.31;100336.34;5017068;28;45603;-54
2022/09/08 01:05:23;;;;;;;;;0.00;0.00;;;;;18.77;66.30;100326.88;5016920;28;45933;-54
2022/09/08 01:13:58;;;;;;;;;1.20;0.20;;;;;18.74;66.45;100324.66;5015895;28;45483;-53
2022/09/08 01:16:23;;;;;;;;;2.20;1.00;;;;;18.73;66.58;100339.66;5016470;28;46429;-52
2022/09/08 01:18:49;;;;;;;;;1.25;1.25;;;;;18.57;66.63;100305.44;5016434;28;45394;-54
2022/09/08 01:21:39;;;;;;;;;1.00;1.00;;;;;18.74;66.71;100344.13;5014541;28;45435;-51
2022/09/08 01:24:18;;;;;;;;;2.00;2.00;;;;;18.76;66.79;100341.03;4996597;28;45434;-53
2022/09/08 01:27:02;;;;;;;;;1.00;1.00;;;;;18.76;66.67;100343.81;5014408;28;48041;-52
2022/09/08 01:29:27;;;;;;;;;1.40;1.00;;;;;18.74;66.27;100346.91;5000457;28;45418;-55
2022/09/08 01:31:53;;;;;;;;;2.25;0.50;;;;;18.72;66.66;100332.44;5017034;28;45422;-51
2022/09/08 01:34:18;;;;;;;;;1.75;0.00;;;;;18.78;66.52;100348.00;4998982;28;45637;-52
2022/09/08 01:36:44;;;;;;;;;1.00;1.00;;;;;18.81;66.19;100350.25;5016246;28;45362;-54
2022/09/08 01:39:09;;;;;;;;;2.00;2.00;;;;;18.63;66.42;100323.00;4984617;28;45777;-51
2022/09/08 01:41:35;;;;;;;;;1.75;1.00;;;;;18.82;66.25;100360.25;5015482;28;45401;-54
2022/09/08 01:44:01;;;;;;;;;1.00;1.00;;;;;18.82;66.25;100364.97;5016617;28;45576;-51
2022/09/08 01:46:27;;;;;;;;;2.00;2.00;;;;;18.82;66.09;100365.81;5015115;28;45504;-54
2022/09/08 01:48:52;;;;;;;;;1.00;1.00;;;;;18.77;66.43;100356.59;5016006;28;45377;-53
2022/09/08 01:51:18;;;;;;;;;2.00;1.25;;;;;18.77;66.20;100357.47;5016748;28;45260;-52
2022/09/08 01:53:43;;;;;;;;;1.00;1.00;;;;;18.78;66.35;100366.66;5016499;28;45311;-53
2022/09/08 01:56:09;;;;;;;;;1.00;1.00;;;;;18.77;66.43;100373.28;5016253;28;46034;-54
2022/09/08 01:58:34;;;;;;;;;1.50;1.50;;;;;18.66;66.34;100353.84;5015730;28;45379;-50
2022/09/08 02:01:01;;;;;;;;;1.75;0.75;;;;;18.74;66.28;100373.84;5014919;28;45443;-50
2022/09/08 02:03:27;;;;;;;;;3.40;0.60;;;;;18.71;66.67;100378.03;5016236;28;45347;-51
2022/09/08 02:05:52;;;;;;;;;1.50;1.50;;;;;18.68;66.60;100362.72;5011507;28;48315;-54
2022/09/08 02:08:18;;;;;;;;;1.00;1.00;;;;;18.74;66.64;100369.16;5016098;28;45533;-53
2022/09/08 02:10:52;;;;;;;;;2.50;1.50;;;;;18.72;66.66;100368.56;5015942;28;45389;-51
2022/09/08 02:13:17;;;;;;;;;1.00;1.00;;;;;18.70;66.83;100368.00;5016314;28;45483;-53
2022/09/08 02:15:43;;;;;;;;;3.25;2.25;;;;;18.70;66.92;100370.78;5015675;28;45985;-53
2022/09/08 02:18:08;;;;;;;;;1.00;1.00;;;;;18.71;66.84;100372.47;5013585;28;45448;-53
2022/09/08 02:20:34;;;;;;;;;2.00;1.00;;;;;18.68;66.95;100379.41;5015889;28;45321;-52
2022/09/08 02:22:59;;;;;;;;;3.50;2.00;;;;;18.69;66.95;100375.50;5015867;28;45551;-50
2022/09/08 02:25:25;;;;;;;;;0.75;0.75;;;;;18.66;66.96;100370.50;5013430;28;47957;-50
2022/09/08 02:27:53;;;;;;;;;1.50;1.50;;;;;18.62;67.27;100369.38;5015335;28;45462;-51
2022/09/08 02:30:20;;;;;;;;;2.20;1.20;;;;;18.63;67.24;100367.44;4997913;28;45360;-51
2022/09/08 02:32:45;;;;;;;;;1.00;1.00;;;;;18.60;67.28;100366.06;5015540;28;45490;-54
2022/09/08 02:35:11;;;;;;;;;1.50;1.50;;;;;18.59;67.27;100360.75;5015500;28;46576;-53
2022/09/08 02:37:36;;;;;;;;;1.00;1.00;;;;;18.57;67.46;100352.69;5026347;28;45383;-51
2022/09/08 02:40:03;;;;;;;;;1.00;1.00;;;;;18.52;67.60;100356.31;5015060;28;45349;-52
2022/09/08 02:42:28;;;;;;;;;1.80;0.40;;;;;18.33;67.62;100327.38;5015378;28;45557;-53
2022/09/08 02:44:54;;;;;;;;;1.00;1.00;;;;;18.26;67.54;100314.56;5014883;28;46672;-52
2022/09/08 02:47:19;;;;;;;;;2.00;2.00;;;;;18.39;67.56;100349.34;5015333;28;45432;-52
2022/09/08 02:49:45;;;;;;;;;1.00;1.00;;;;;18.36;67.88;100346.28;5015138;28;45469;-52
2022/09/08 02:52:11;;;;;;;;;0.50;0.50;;;;;18.36;67.82;100349.88;5015519;28;45601;-54
2022/09/08 02:54:37;;;;;;;;;3.60;2.00;;;;;18.32;67.93;100343.22;5015067;28;46259;-51
2022/09/08 02:57:03;;;;;;;;;2.75;2.75;;;;;18.27;68.43;100343.19;5014977;28;45284;-50
2022/09/08 02:59:28;;;;;;;;;1.00;1.00;;;;;18.28;68.33;100330.97;5015294;28;45216;-51
2022/09/08 03:01:54;;;;;;;;;2.00;2.00;;;;;18.31;68.19;100338.78;4997350;28;45240;-54
2022/09/08 03:04:19;;;;;;;;;1.00;1.00;;;;;18.29;68.13;100324.31;5014818;28;45453;-53
2022/09/08 03:06:45;;;;;;;;;2.00;2.00;;;;;18.25;68.26;100321.25;5013333;28;45399;-54
2022/09/08 03:09:10;;;;;;;;;2.50;2.50;;;;;18.25;68.11;100329.56;4996881;28;45253;-52
2022/09/08 03:11:36;;;;;;;;;2.50;2.50;;;;;18.22;68.29;100320.97;5015495;28;45192;-54
2022/09/08 03:14:01;;;;;;;;;1.25;1.25;;;;;18.07;68.70;100297.59;5012859;28;47746;-53
2022/09/08 03:16:27;;;;;;;;;2.00;1.00;;;;;18.19;68.45;100311.22;5013308;28;45213;-53
2022/09/08 03:18:53;;;;;;;;;2.00;2.00;;;;;18.19;68.42;100316.78;5013334;28;45409;-51
2022/09/08 03:21:19;;;;;;;;;1.80;1.60;;;;;18.00;68.59;100288.66;5015349;28;45860;-51
2022/09/08 03:23:45;;;;;;;;;1.00;1.00;;;;;18.15;68.53;100321.25;5014942;28;46502;-52
2022/09/08 03:26:12;;;;;;;;;1.00;1.00;;;;;17.70;68.29;100243.88;5014630;28;45442;-53
2022/09/08 03:28:38;;;;;;;;;3.40;1.80;;;;;18.08;68.60;100302.03;5015309;28;45417;-50
2022/09/08 03:31:06;;;;;;;;;1.25;1.25;;;;;18.15;68.70;100315.69;5015053;28;45894;-54
2022/09/08 03:33:32;;;;;;;;;2.60;1.40;;;;;18.10;68.70;100299.00;5014901;28;45832;-51
2022/09/08 03:36:01;;;;;;;;;3.75;2.00;;;;;17.98;68.39;100282.56;5010221;28;45438;-50
2022/09/08 03:38:27;;;;;;;;;2.40;1.60;;;;;18.19;68.42;100311.22;5000390;28;45371;-51
2022/09/08 03:40:53;;;;;;;;;2.40;1.20;;;;;17.98;68.55;100277.00;5015154;28;45606;-53
2022/09/08 03:43:18;;;;;;;;;4.00;2.50;;;;;18.14;68.68;100309.28;5014596;28;45415;-52
2022/09/08 03:45:45;;;;;;;;;1.50;1.50;;;;;18.01;68.50;100302.28;5010893;28;45229;-51
2022/09/08 03:48:14;;;;;;;;;1.60;1.60;;;;;17.61;69.07;100235.25;4990618;28;45405;-50
2022/09/08 03:50:40;;;;;;;;;2.00;2.00;;;;;18.06;68.99;100303.41;5014903;28;45399;-53
2022/09/08 03:53:05;;;;;;;;;2.75;2.75;;;;;18.07;68.92;100307.84;5029891;28;45460;-55
2022/09/08 03:55:31;;;;;;;;;1.50;1.50;;;;;18.11;68.88;100303.44;5014575;28;45807;-53
2022/09/08 03:57:58;;;;;;;;;2.00;2.00;;;;;18.12;68.91;100302.31;5014801;28;45489;-50
2022/09/08 04:00:23;;;;;;;;;2.40;2.40;;;;;18.15;68.66;100302.63;5011276;28;46020;-50
2022/09/08 04:02:49;;;;;;;;;2.00;2.00;;;;;18.20;68.48;100307.34;5014762;28;46523;-54
2022/09/08 04:05:14;;;;;;;;;3.50;3.50;;;;;18.15;68.60;100302.63;5013338;28;45401;-52
2022/09/08 04:07:40;;;;;;;;;3.00;2.00;;;;;18.00;68.47;100272.81;5014550;28;45309;-50
2022/09/08 04:10:07;;;;;;;;;3.25;3.25;;;;;18.23;68.48;100306.81;5014902;28;45878;-50
2022/09/08 04:12:32;;;;;;;;;3.00;3.00;;;;;18.16;68.27;100297.91;5014420;28;46163;-51
2022/09/08 04:14:58;;;;;;;;;4.75;4.00;;;;;18.20;68.42;100309.31;5014632;28;45485;-54
2022/09/08 04:17:24;;;;;;;;;3.25;3.25;;;;;18.18;68.63;100312.34;5014541;28;45891;-52
2022/09/08 04:19:50;;;;;;;;;2.50;2.50;;;;;18.04;68.68;100277.84;5014627;28;45953;-49
2022/09/08 04:22:17;;;;;;;;;2.00;2.00;;;;;18.04;68.50;100281.44;5017882;28;45863;-50
2022/09/08 04:24:43;;;;;;;;;2.80;2.00;;;;;17.83;68.22;100250.84;4999734;28;45423;-53
2022/09/08 04:27:09;;;;;;;;;4.40;4.00;;;;;18.13;68.74;100310.41;5033159;28;45261;-50
2022/09/08 04:29:34;;;;;;;;;2.00;2.00;;;;;18.14;68.66;100300.09;5017832;28;45643;-55
2022/09/08 04:32:00;;;;;;;;;3.75;2.00;;;;;18.08;69.15;100304.81;5017696;28;46009;-53
2022/09/08 04:34:26;;;;;;;;;4.00;2.00;;;;;18.11;68.90;100304.28;5017658;28;45373;-50
2022/09/08 04:36:51;;;;;;;;;3.25;2.25;;;;;18.17;68.79;100295.94;5017658;28;45731;-50
2022/09/08 04:39:18;;;;;;;;;3.00;3.00;;;;;18.15;68.98;100296.25;5017958;28;45246;-51
2022/09/08 04:41:43;;;;;;;;;5.60;3.20;;;;;18.20;68.65;100298.19;5017239;28;47523;-51
2022/09/08 04:44:09;;;;;;;;;2.25;2.00;;;;;18.16;68.77;100292.34;5017729;28;45340;-51
2022/09/08 04:46:35;;;;;;;;;3.00;2.00;;;;;18.18;68.76;100294.88;5016434;28;45439;-51
2022/09/08 04:49:01;;;;;;;;;7.60;4.80;;;;;18.17;68.82;100296.78;5017455;28;45921;-51
2022/09/08 04:51:27;;;;;;;;;2.25;2.25;;;;;18.18;68.84;100292.91;5017142;28;45610;-53
2022/09/08 04:53:55;;;;;;;;;4.20;3.00;;;;;18.15;68.61;100297.06;5016028;28;45811;-54
2022/09/08 04:56:21;;;;;;;;;4.40;3.00;;;;;17.99;69.03;100271.16;5032455;28;45361;-52
2022/09/08 04:58:47;;;;;;;;;5.00;4.00;;;;;18.16;68.66;100281.25;5017103;28;45342;-53
2022/09/08 05:01:18;;;;;;;;;4.00;3.50;;;;;18.23;68.66;100297.63;5017219;28;46458;-51
2022/09/08 05:03:44;;;;;;;;;4.80;3.60;;;;;18.27;68.57;100295.97;5016789;28;45295;-50
2022/09/08 05:06:12;;;;;;;;;3.00;2.00;;;;;18.29;68.38;100294.59;5017274;28;45320;-49
2022/09/08 05:08:38;;;;;;;;;4.80;3.20;;;;;18.28;68.36;100289.31;4999831;28;45348;-49
2022/09/08 05:11:04;;;;;;;;;4.50;3.00;;;;;18.31;68.41;100301.81;5015530;28;45939;-53
2022/09/08 05:13:30;;;;;;;;;2.00;2.00;;;;;18.29;68.59;100300.16;5017097;28;45463;-49
2022/09/08 05:16:06;;;;;;;;;3.00;3.00;;;;;18.31;68.22;100299.03;5016751;28;45457;-53
2022/09/08 05:18:31;;;;;;;;;3.00;3.00;;;;;18.28;68.38;100298.50;5015777;28;45488;-51
2022/09/08 05:20:57;;;;;;;;;4.00;4.00;;;;;18.24;68.60;100297.38;5016067;28;46074;-50
2022/09/08 05:23:22;;;;;;;;;2.50;2.50;;;;;18.05;68.46;100269.28;5016785;28;45364;-53
2022/09/08 05:26:01;;;;;;;;;3.50;2.50;;;;;18.14;68.77;100278.72;5016573;28;45251;-49
2022/09/08 05:28:29;;;;;;;;;6.20;4.00;;;;;18.21;68.61;100305.41;5016903;28;45356;-50
2022/09/08 05:30:55;;;;;;;;;6.80;5.00;;;;;18.19;68.91;100311.22;5016087;28;45548;-51
2022/09/08 05:33:21;;;;;;;;;2.75;2.75;;;;;18.19;68.76;100302.91;5015250;28;45403;-52
2022/09/08 05:35:47;;;;;;;;;3.00;3.00;;;;;18.00;68.83;100275.59;5016443;28;45501;-53
2022/09/08 05:38:12;;;;;;;;;3.25;3.00;;;;;18.26;68.60;100310.97;4979072;28;45859;-52
2022/09/08 05:40:38;;;;;;;;;3.25;3.25;;;;;18.28;68.56;100317.94;5016419;28;46522;-53
2022/09/08 05:43:03;;;;;;;;;1.75;1.75;;;;;18.26;68.79;100316.53;5015985;28;45345;-53
2022/09/08 05:45:29;;;;;;;;;4.00;3.75;;;;;18.25;68.65;100312.91;5016441;28;45229;-53
2022/09/08 05:47:55;;;;;;;;;4.25;3.25;;;;;18.30;68.50;100317.63;5014680;28;45332;-51
2022/09/08 05:50:20;;;;;;;;;3.25;3.25;;;;;18.24;68.36;100297.38;5015829;28;45533;-55
2022/09/08 05:52:46;;;;;;;;;5.00;4.00;;;;;18.34;68.47;100307.66;4998210;28;45454;-53
2022/09/08 05:55:11;;;;;;;;;5.75;3.25;;;;;18.38;68.47;100308.78;5016155;28;45154;-53
2022/09/08 05:57:37;;;;;;;;;4.50;4.50;;;;;18.28;68.18;100300.44;5016686;28;45253;-55
2022/09/08 06:00:03;;;;;;;;;4.75;2.75;;;;;18.42;68.23;100317.41;5015809;28;45917;-55
2022/09/08 06:02:29;;;;;;;;;6.40;3.60;;;;;18.45;68.29;100314.06;5015796;28;45417;-53
2022/09/08 06:04:55;;;;;;;;;2.00;2.00;;;;;18.45;68.26;100319.63;5016321;28;45429;-50
2022/09/08 06:07:21;;;;;;;;;4.80;4.00;;;;;18.51;68.30;100326.84;5015967;28;45486;-54
2022/09/08 06:09:46;;;;;;;;;5.25;4.25;;;;;18.51;68.02;100326.84;4995933;28;45855;-51
2022/09/08 06:12:12;;;;;;;;;7.25;4.00;;;;;18.27;67.88;100280.16;5015640;28;45522;-51
2022/09/08 06:14:37;;;;;;;;;5.25;3.75;;;;;18.51;67.99;100318.53;5014628;28;45957;-53
2022/09/08 06:17:03;;;;;;;;;4.25;4.25;;;;;18.53;67.86;100327.41;5015697;28;45401;-50
2022/09/08 06:19:29;;;;;;;;;6.40;5.40;;;;;18.54;67.54;100331.88;4997263;28;47595;-53
2022/09/08 06:21:54;;;;;;;;;2.25;2.00;;;;;18.57;67.67;100333.25;5016031;28;45351;-52
2022/09/08 06:24:20;;;;;;;;;4.00;4.00;;;;;18.61;67.50;100328.81;4998132;28;45387;-53
2022/09/08 06:27:06;;;;;;;;;3.25;2.50;;;;;18.65;67.17;100326.31;5014438;28;45341;-49
2022/09/08 06:29:50;;;;;;;;;6.40;4.60;;;;;18.46;67.31;100301.84;5011324;28;46620;-51
2022/09/08 06:32:20;;;;;;;;;5.60;2.80;;;;;18.48;67.31;100298.78;5015802;28;45427;-52
2022/09/08 06:35:14;;;;;;;;;2.60;2.60;;;;;18.46;67.01;100292.69;5028385;28;45341;-50
2022/09/08 06:37:49;;;;;;;;;4.00;4.00;;;;;18.67;67.04;100319.38;5014243;28;45491;-51
2022/09/08 06:40:29;;;;;;;;;5.00;3.00;;;;;18.60;66.78;100295.72;5013140;28;45481;-54
2022/09/08 06:43:27;;;;;;;;;4.40;3.80;;;;;18.73;66.74;100311.84;4996950;28;45362;-51
2022/09/08 06:45:55;;;;;;;;;4.00;4.00;;;;;18.54;66.67;100265.19;5026315;28;45415;-52
2022/09/08 06:48:28;;;;;;;;;3.00;3.00;;;;;18.75;66.13;100295.75;5015792;28;45473;-53
2022/09/08 06:51:20;;;;;;;;;4.80;3.80;;;;;18.80;66.05;100303.25;5012039;28;47079;-55
2022/09/08 06:54:08;;;;;;;;;5.80;5.00;;;;;18.81;66.24;100316.88;5014312;28;45297;-52
2022/09/08 06:56:56;;;;;;;;;7.80;4.00;;;;;18.52;66.06;100259.06;5000409;28;45476;-52
2022/09/08 06:59:33;;;;;;;;;3.80;3.60;;;;;18.99;65.71;100319.38;5013944;28;45370;-51
2022/09/08 07:02:24;;;;;;;;;4.40;4.20;;;;;19.06;65.57;100317.19;5015465;28;45500;-52
2022/09/08 07:04:58;;;;;;;;;5.80;3.80;;;;;19.12;65.31;100320.78;5015488;28;45429;-54
2022/09/08 07:07:50;;;;;;;;;5.40;4.00;;;;;19.17;65.18;100313.28;5015409;28;45402;-53
2022/09/08 07:10:39;;;;;;;;;5.80;5.60;;;;;19.25;64.61;100314.63;5013735;28;45340;-58
2022/09/08 07:13:17;;;;;;;;;7.40;5.20;;;;;19.27;64.64;100322.72;4993234;28;45466;-52
2022/09/08 07:16:09;;;;;;;;;6.80;5.80;;;;;19.25;64.89;100324.94;5014778;28;45382;-52
2022/09/08 07:18:41;;;;;;;;;4.60;4.60;;;;;19.17;65.14;100304.09;5012241;28;45430;-58
2022/09/08 07:21:11;;;;;;;;;4.00;4.00;;;;;19.40;64.11;100321.28;4994262;28;45498;-52
2022/09/08 07:23:37;;;;;;;;;4.60;4.60;;;;;19.49;64.73;100319.59;5014849;28;45598;-55
2022/09/08 07:26:19;;;;;;;;;7.00;5.00;;;;;19.46;63.79;100304.31;5014650;28;45445;-49
2022/09/08 07:28:47;;;;;;;;;4.80;4.80;;;;;19.29;63.87;100271.25;4986107;28;45397;-49
2022/09/08 07:31:20;;;;;;;;;5.60;5.40;;;;;19.40;63.61;100297.09;4997622;28;45557;-50
2022/09/08 07:33:48;;;;;;;;;6.00;6.00;;;;;19.59;64.66;100305.63;4996189;28;47337;-51
2022/09/08 07:36:32;;;;;;;;;5.60;4.60;;;;;19.53;63.95;100309.56;5014737;28;45284;-50
2022/09/08 07:38:59;;;;;;;;;5.80;5.00;;;;;19.43;63.94;100285.38;5014466;28;45406;-49
2022/09/08 07:41:34;;;;;;;;;5.80;5.00;;;;;19.50;64.50;100312.91;4996500;28;45656;-53
2022/09/08 07:44:05;;;;;;;;;5.20;5.20;;;;;19.54;64.93;100314.03;4990870;28;46792;-51
2022/09/08 07:46:33;;;;;;;;;6.00;4.00;;;;;19.33;64.26;100302.13;5011632;28;45412;-54
2022/09/08 07:49:37;;;;;;;;;4.60;4.60;;;;;19.54;64.43;100321.53;5014021;28;45521;-53
2022/09/08 07:52:08;;;;;;;;;7.00;5.80;;;;;19.47;64.55;100325.44;5014814;28;45310;-53
2022/09/08 07:54:49;;;;;;;;;4.40;3.80;;;;;19.40;64.53;100307.38;5014827;28;45967;-52
2022/09/08 07:57:27;;;;;;;;;5.20;4.00;;;;;19.52;64.67;100323.78;5011457;28;45431;-51
2022/09/08 08:00:12;;;;;;;;;6.40;6.00;;;;;19.54;64.34;100322.38;5024219;28;45357;-51
2022/09/08 08:02:46;;;;;;;;;6.00;6.00;;;;;19.67;63.44;100317.31;5018262;28;45352;-53
2022/09/08 08:05:19;;;;;;;;;9.40;6.60;;;;;19.73;63.45;100324.53;5016290;28;48296;-53
2022/09/08 08:08:22;;;;;;;;;5.80;4.20;;;;;19.75;63.42;100317.56;5017711;28;45373;-53
2022/09/08 08:11:00;;;;;;;;;4.00;3.60;;;;;19.82;63.01;100322.81;4998737;28;45347;-53
2022/09/08 08:13:45;;;;;;;;;4.80;4.80;;;;;19.88;63.14;100321.69;4998294;28;45344;-54
2022/09/08 08:16:15;;;;;;;;;7.40;7.40;;;;;19.84;62.53;100320.59;4996263;28;46084;-53
2022/09/08 08:19:12;;;;;;;;;6.60;5.20;;;;;19.80;62.57;100322.25;4981794;28;46054;-52
2022/09/08 08:21:48;;;;;;;;;6.80;4.80;;;;;19.75;62.56;100331.47;5032513;28;45445;-51
2022/09/08 08:24:30;;;;;;;;;3.00;3.00;;;;;19.69;62.55;100303.94;5011975;28;45545;-51
2022/09/08 08:27:00;;;;;;;;;4.60;1.80;;;;;19.88;62.42;100320.84;4997264;28;45939;-52
2022/09/08 08:29:44;;;;;;;;;4.80;3.60;;;;;19.83;62.47;100320.88;4997244;28;45461;-51
2022/09/08 08:32:18;;;;;;;;;6.40;4.20;;;;;19.77;62.42;100334.81;5006229;28;45439;-55
2022/09/08 08:34:58;;;;;;;;;5.20;3.20;;;;;19.85;62.07;100325.03;5031529;28;45561;-53
2022/09/08 08:37:25;;;;;;;;;5.80;3.80;;;;;19.90;61.73;100336.16;5015942;28;46490;-55
2022/09/08 08:39:52;;;;;;;;;5.40;3.40;;;;;19.92;61.37;100331.13;5016475;28;45890;-54
2022/09/08 08:42:32;;;;;;;;;2.40;2.40;;;;;19.77;61.41;100297.78;4975259;28;45862;-53
2022/09/08 08:45:01;;;;;;;;;3.60;3.60;;;;;20.08;60.99;100336.69;5008519;28;45759;-50
2022/09/08 08:47:58;;;;;;;;;5.20;3.80;;;;;20.05;60.84;100345.59;5013662;28;45414;-57
2022/09/08 08:50:56;;;;;;;;;3.60;3.60;;;;;20.01;60.90;100342.53;5015592;28;45355;-56
2022/09/08 08:53:51;;;;;;;;;4.60;3.60;;;;;19.96;60.97;100347.31;4993850;28;45430;-53
2022/09/08 08:56:23;;;;;;;;;3.60;2.40;;;;;20.06;61.16;100360.34;4999785;28;45411;-51
2022/09/08 08:58:54;;;;;;;;;3.80;3.00;;;;;20.06;61.09;100335.28;5015259;28;46614;-51
2022/09/08 09:01:23;;;;;;;;;4.60;3.00;;;;;20.03;60.98;100353.41;5015364;28;45349;-50
2022/09/08 09:04:19;;;;;;;;;6.20;5.20;;;;;19.98;61.23;100361.78;5015567;28;45693;-54
2022/09/08 09:07:06;;;;;;;;;3.40;3.40;;;;;19.92;60.88;100353.41;5015071;28;45451;-53
2022/09/08 09:10:01;;;;;;;;;2.80;2.80;;;;;19.87;61.22;100359.00;5009982;28;45755;-52
2022/09/08 09:12:48;;;;;;;;;7.80;3.80;;;;;19.86;61.48;100367.66;5010061;28;45562;-52
2022/09/08 09:15:55;;;;;;;;;4.40;3.00;;;;;19.86;61.28;100365.69;5010257;28;45455;-52
2022/09/08 09:18:30;;;;;;;;;3.60;3.00;;;;;19.84;61.57;100359.56;4969773;28;46378;-49
2022/09/08 09:21:07;;;;;;;;;4.20;2.60;;;;;19.77;61.65;100356.25;5004624;28;47822;-54
2022/09/08 09:23:40;;;;;;;;;5.20;4.00;;;;;19.86;61.62;100362.88;5013809;28;45725;-51
2022/09/08 09:26:20;;;;;;;;;5.20;4.80;;;;;19.88;61.67;100363.47;5015816;28;45516;-55
2022/09/08 09:29:05;;;;;;;;;2.20;2.20;;;;;20.00;61.87;100371.50;5015756;28;45374;-52
2022/09/08 09:32:05;;;;;;;;;3.60;3.40;;;;;20.03;61.58;100368.16;4971255;28;47851;-52
2022/09/08 09:34:45;;;;;;;;;5.40;5.00;;;;;19.90;61.78;100327.81;5008971;28;46045;-51
2022/09/08 09:37:41;;;;;;;;;5.80;3.20;;;;;20.24;60.90;100364.44;5010936;28;45876;-50
2022/09/08 09:40:19;;;;;;;;;6.40;5.40;;;;;20.18;60.82;100342.19;5024621;28;45433;-50
2022/09/08 09:42:59;;;;;;;;;4.00;4.00;;;;;20.35;60.74;100368.84;5001385;28;45868;-51
2022/09/08 09:45:35;;;;;;;;;4.40;3.60;;;;;20.42;60.62;100363.78;4984905;28;46359;-51
2022/09/08 09:48:38;;;;;;;;;4.80;4.00;;;;;20.42;60.24;100358.22;5007828;28;45398;-52
2022/09/08 09:51:25;;;;;;;;;5.00;3.60;;;;;20.40;60.57;100356.84;5014217;28;45759;-52
2022/09/08 09:54:01;;;;;;;;;5.20;3.60;;;;;20.44;60.67;100346.78;5016725;28;45501;-54
2022/09/08 09:56:39;;;;;;;;;6.00;4.20;;;;;20.27;60.70;100327.66;5025602;28;45564;-53
2022/09/08 09:59:26;;;;;;;;;6.00;5.80;;;;;20.35;60.62;100329.00;5007142;28;45546;-48
2022/09/08 10:02:39;;;;;;;;;6.40;5.20;;;;;20.53;60.40;100349.78;4992761;28;45434;-52
2022/09/08 10:05:26;;;;;;;;;6.60;3.20;;;;;20.64;59.81;100359.75;4991581;28;46485;-54
2022/09/08 10:08:30;;;;;;;;;5.00;2.80;;;;;20.78;59.54;100348.78;5010807;28;45870;-50
2022/09/08 10:11:20;;;;;;;;;3.00;3.00;;;;;20.93;59.12;100347.88;5009266;28;45444;-53
2022/09/08 10:14:16;;;;;;;;;6.60;5.60;;;;;21.04;59.04;100333.81;5009348;28;45502;-56
2022/09/08 10:17:00;;;;;;;;;5.60;4.60;;;;;20.82;59.07;100284.88;5009169;28;46676;-51
2022/09/08 10:20:03;;;;;;;;;3.00;3.00;;;;;21.12;59.05;100327.59;5007091;28;46132;-56
2022/09/08 10:22:55;;;;;;;;;3.60;2.40;;;;;21.16;59.62;100319.47;4978435;28;46049;-51
2022/09/08 10:25:52;;;;;;;;;3.80;2.40;;;;;20.98;59.14;100313.50;4997375;28;45479;-50
2022/09/08 10:29:09;;;;;;;;;2.00;1.80;;;;;20.85;59.78;100315.84;5022016;28;47587;-50
2022/09/08 10:32:02;;;;;;;;;6.00;6.00;;;;;20.77;60.13;100313.66;4964252;28;45821;-52
2022/09/08 10:34:42;;;;;;;;;6.80;4.00;;;;;20.75;59.75;100276.03;5009172;28;45473;-54
2022/09/08 10:37:13;;;;;;;;;3.00;3.00;;;;;21.15;59.83;100313.06;5007176;28;45434;-50
2022/09/08 10:39:48;;;;;;;;;3.20;3.00;;;;;21.34;59.47;100303.94;5009605;28;46674;-49
2022/09/08 10:42:13;;;;;;;;;2.80;2.00;;;;;21.51;58.80;100289.53;5010411;28;45383;-56
2022/09/08 10:44:54;;;;;;;;;2.75;2.50;;;;;21.46;57.33;100267.25;5007622;28;45411;-53
2022/09/08 10:47:53;;;;;;;;;3.00;2.20;;;;;21.61;56.72;100296.94;5010327;28;46005;-54
2022/09/08 10:50:23;;;;;;;;;3.20;1.80;;;;;21.31;56.71;100249.56;5003899;28;46901;-54
2022/09/08 10:53:12;;;;;;;;;2.20;2.20;;;;;21.69;56.55;100303.81;4960097;28;46270;-50
2022/09/08 10:55:49;;;;;;;;;2.00;2.00;;;;;21.86;56.17;100300.56;5009569;28;45535;-50
2022/09/08 10:58:35;;;;;;;;;3.80;2.20;;;;;21.95;55.81;100296.00;5024817;28;45835;-53
2022/09/08 11:01:22;;;;;;;;;1.40;1.00;;;;;21.89;55.84;100289.63;5007868;28;46145;-53
2022/09/08 11:04:00;;;;;;;;;2.60;2.60;;;;;21.91;55.18;100292.13;4989541;28;45722;-52
2022/09/08 11:06:50;;;;;;;;;1.20;1.20;;;;;22.06;54.73;100286.34;4989679;28;45491;-49
2022/09/08 11:09:39;;;;;;;;;3.20;1.60;;;;;22.16;54.86;100290.94;4991197;28;45460;-54
2022/09/08 11:12:20;;;;;;;;;2.20;1.80;;;;;21.80;54.35;100225.25;4990642;28;46589;-53
2022/09/08 11:15:28;;;;;;;;;2.40;2.40;;;;;22.46;54.01;100304.75;5010818;28;45385;-55
2022/09/08 11:18:05;;;;;;;;;2.20;1.40;;;;;22.13;53.03;100274.78;5002424;28;45478;-55
2022/09/08 11:20:35;;;;;;;;;5.40;1.80;;;;;22.23;53.08;100287.75;4994331;28;45503;-52
2022/09/08 11:23:23;;;;;;;;;3.40;1.00;;;;;22.25;52.66;100313.44;4992973;28;46080;-52
2022/09/08 11:26:08;;;;;;;;;2.00;2.00;;;;;22.44;53.03;100284.66;5002440;28;45608;-53
2022/09/08 11:29:18;;;;;;;;;1.60;1.60;;;;;22.67;52.18;100296.91;5009486;28;45548;-51
2022/09/08 11:32:08;;;;;;;;;1.00;1.00;;;;;22.65;52.28;100307.56;5001921;28;45328;-50
2022/09/08 11:35:01;;;;;;;;;3.00;3.00;;;;;22.55;52.53;100321.69;5012666;28;45474;-51
2022/09/08 11:37:55;;;;;;;;;2.60;1.40;;;;;22.67;52.57;100296.09;5011284;28;45470;-52
2022/09/08 11:40:36;;;;;;;;;1.80;1.80;;;;;22.69;51.88;100274.22;4981134;28;45312;-51
2022/09/08 11:43:23;;;;;;;;;3.00;3.00;;;;;22.82;51.70;100312.59;5018183;28;45716;-52
2022/09/08 11:46:06;;;;;;;;;3.80;2.80;;;;;22.61;52.29;100307.34;4997298;28;46585;-53
2022/09/08 11:48:54;;;;;;;;;3.60;2.40;;;;;22.51;52.30;100307.50;4998232;28;45460;-52
2022/09/08 11:51:23;;;;;;;;;0.40;0.00;;;;;22.31;52.08;100258.31;5028255;28;45336;-52
2022/09/08 11:54:29;;;;;;;;;1.00;1.00;;;;;22.65;52.57;100310.38;4998729;28;45573;-54
2022/09/08 11:57:15;;;;;;;;;2.40;1.40;;;;;22.50;52.72;100266.66;4998676;28;45615;-52
2022/09/08 12:00:07;;;;;;;;;4.40;1.00;;;;;22.91;51.82;100279.16;4998081;28;45384;-53
2022/09/08 12:03:18;;;;;;;;;3.60;2.80;;;;;23.20;51.56;100285.66;4982947;28;45743;-55